sensor_id;sensor_type;location;lat;lon;timestamp;P1;durP1;ratioP1;P2;durP2;ratioP2
43552;SDS011;29153;42.696;23.218;2024-03-06T00:00:16;17.27;;;6.90;;
43552;SDS011;29153;42.696;23.218;2024-03-06T00:02:44;12.95;;;5.95;;
43552;SDS011;29153;42.696;23.218;2024-03-06T00:05:12;14.55;;;6.37;;
43552;SDS011;29153;42.696;23.218;2024-03-06T00:07:40;13.98;;;6.05;;
43552;SDS011;29153;42.696;23.218;2024-03-06T00:10:11;14.58;;;6.47;;
43552;SDS011;29153;42.696;23.218;2024-03-06T00:17:53;14.90;;;6.92;;
43552;SDS011;29153;42.696;23.218;2024-03-06T00:20:22;13.45;;;5.30;;
43552;SDS011;29153;42.696;23.218;2024-03-06T00:22:51;13.65;;;5.65;;
43552;SDS011;29153;42.696;23.218;2024-03-06T00:25:22;13.72;;;6.20;;
43552;SDS011;29153;42.696;23.218;2024-03-06T00:27:50;14.90;;;6.05;;
43552;SDS011;29153;42.696;23.218;2024-03-06T00:32:58;11.95;;;5.08;;
43552;SDS011;29153;42.696;23.218;2024-03-06T00:35:32;13.45;;;6.35;;
43552;SDS011;29153;42.696;23.218;2024-03-06T00:38:01;13.48;;;5.83;;
43552;SDS011;29153;42.696;23.218;2024-03-06T00:40:29;14.87;;;5.37;;
43552;SDS011;29153;42.696;23.218;2024-03-06T00:43:01;19.27;;;6.78;;
43552;SDS011;29153;42.696;23.218;2024-03-06T00:45:28;19.02;;;8.43;;
43552;SDS011;29153;42.696;23.218;2024-03-06T00:47:56;41.92;;;16.70;;
43552;SDS011;29153;42.696;23.218;2024-03-06T00:50:24;16.60;;;7.70;;
43552;SDS011;29153;42.696;23.218;2024-03-06T00:52:52;17.23;;;6.97;;
43552;SDS011;29153;42.696;23.218;2024-03-06T00:55:20;16.10;;;7.33;;
43552;SDS011;29153;42.696;23.218;2024-03-06T00:57:57;13.75;;;6.58;;
43552;SDS011;29153;42.696;23.218;2024-03-06T01:00:34;13.50;;;5.90;;
43552;SDS011;29153;42.696;23.218;2024-03-06T01:14:38;15.93;;;6.92;;
43552;SDS011;29153;42.696;23.218;2024-03-06T01:23:05;18.32;;;7.37;;
43552;SDS011;29153;42.696;23.218;2024-03-06T01:25:33;18.30;;;8.68;;
43552;SDS011;29153;42.696;23.218;2024-03-06T01:28:02;19.00;;;8.68;;
43552;SDS011;29153;42.696;23.218;2024-03-06T01:30:29;19.92;;;7.72;;
43552;SDS011;29153;42.696;23.218;2024-03-06T01:32:57;16.97;;;7.67;;
43552;SDS011;29153;42.696;23.218;2024-03-06T01:35:25;20.77;;;9.03;;
43552;SDS011;29153;42.696;23.218;2024-03-06T01:37:52;18.50;;;8.83;;
43552;SDS011;29153;42.696;23.218;2024-03-06T01:40:20;19.37;;;7.60;;
43552;SDS011;29153;42.696;23.218;2024-03-06T01:42:47;20.43;;;8.20;;
43552;SDS011;29153;42.696;23.218;2024-03-06T01:45:15;19.73;;;8.15;;
43552;SDS011;29153;42.696;23.218;2024-03-06T01:47:43;17.92;;;8.48;;
43552;SDS011;29153;42.696;23.218;2024-03-06T01:50:12;19.77;;;8.13;;
43552;SDS011;29153;42.696;23.218;2024-03-06T01:52:40;20.50;;;9.78;;
43552;SDS011;29153;42.696;23.218;2024-03-06T01:55:09;17.02;;;7.97;;
43552;SDS011;29153;42.696;23.218;2024-03-06T01:57:38;20.82;;;7.97;;
43552;SDS011;29153;42.696;23.218;2024-03-06T02:00:08;20.85;;;8.40;;
43552;SDS011;29153;42.696;23.218;2024-03-06T02:02:37;16.45;;;8.30;;
43552;SDS011;29153;42.696;23.218;2024-03-06T02:05:06;19.90;;;7.75;;
43552;SDS011;29153;42.696;23.218;2024-03-06T02:07:34;18.85;;;7.70;;
43552;SDS011;29153;42.696;23.218;2024-03-06T02:10:06;20.52;;;7.95;;
43552;SDS011;29153;42.696;23.218;2024-03-06T02:12:36;19.23;;;8.70;;
43552;SDS011;29153;42.696;23.218;2024-03-06T02:15:04;18.80;;;8.43;;
43552;SDS011;29153;42.696;23.218;2024-03-06T02:17:32;20.40;;;8.83;;
43552;SDS011;29153;42.696;23.218;2024-03-06T02:20:00;19.15;;;7.55;;
43552;SDS011;29153;42.696;23.218;2024-03-06T02:22:30;15.58;;;7.28;;
43552;SDS011;29153;42.696;23.218;2024-03-06T02:24:59;15.93;;;6.45;;
43552;SDS011;29153;42.696;23.218;2024-03-06T02:27:26;14.60;;;7.60;;
43552;SDS011;29153;42.696;23.218;2024-03-06T02:29:54;17.82;;;7.58;;
43552;SDS011;29153;42.696;23.218;2024-03-06T02:32:22;15.90;;;7.25;;
43552;SDS011;29153;42.696;23.218;2024-03-06T02:37:18;15.55;;;7.20;;
43552;SDS011;29153;42.696;23.218;2024-03-06T02:39:45;16.95;;;7.12;;
43552;SDS011;29153;42.696;23.218;2024-03-06T02:42:13;15.68;;;6.65;;
43552;SDS011;29153;42.696;23.218;2024-03-06T02:44:44;14.83;;;6.58;;
43552;SDS011;29153;42.696;23.218;2024-03-06T02:47:16;16.12;;;7.08;;
43552;SDS011;29153;42.696;23.218;2024-03-06T02:49:44;15.48;;;6.65;;
43552;SDS011;29153;42.696;23.218;2024-03-06T02:52:12;13.98;;;6.42;;
43552;SDS011;29153;42.696;23.218;2024-03-06T02:54:42;14.18;;;7.47;;
43552;SDS011;29153;42.696;23.218;2024-03-06T02:57:10;14.95;;;6.95;;
43552;SDS011;29153;42.696;23.218;2024-03-06T02:59:39;15.48;;;6.17;;
43552;SDS011;29153;42.696;23.218;2024-03-06T03:02:07;15.58;;;7.12;;
43552;SDS011;29153;42.696;23.218;2024-03-06T03:04:34;17.27;;;7.83;;
43552;SDS011;29153;42.696;23.218;2024-03-06T03:07:02;14.75;;;6.62;;
43552;SDS011;29153;42.696;23.218;2024-03-06T03:09:31;14.85;;;6.65;;
43552;SDS011;29153;42.696;23.218;2024-03-06T03:11:58;15.80;;;7.05;;
43552;SDS011;29153;42.696;23.218;2024-03-06T03:14:26;17.52;;;6.85;;
43552;SDS011;29153;42.696;23.218;2024-03-06T03:16:53;18.42;;;7.30;;
43552;SDS011;29153;42.696;23.218;2024-03-06T03:19:21;14.68;;;6.60;;
43552;SDS011;29153;42.696;23.218;2024-03-06T03:21:49;15.53;;;6.87;;
43552;SDS011;29153;42.696;23.218;2024-03-06T03:24:16;17.90;;;7.62;;
43552;SDS011;29153;42.696;23.218;2024-03-06T03:26:46;15.45;;;7.50;;
43552;SDS011;29153;42.696;23.218;2024-03-06T03:29:13;16.35;;;7.53;;
43552;SDS011;29153;42.696;23.218;2024-03-06T03:31:41;15.70;;;6.90;;
43552;SDS011;29153;42.696;23.218;2024-03-06T03:34:09;14.05;;;6.75;;
43552;SDS011;29153;42.696;23.218;2024-03-06T03:36:43;16.85;;;8.20;;
43552;SDS011;29153;42.696;23.218;2024-03-06T03:39:11;16.82;;;7.58;;
43552;SDS011;29153;42.696;23.218;2024-03-06T03:41:48;17.02;;;7.15;;
43552;SDS011;29153;42.696;23.218;2024-03-06T03:44:15;15.72;;;7.55;;
43552;SDS011;29153;42.696;23.218;2024-03-06T03:46:49;17.37;;;7.58;;
43552;SDS011;29153;42.696;23.218;2024-03-06T03:49:17;16.25;;;8.25;;
43552;SDS011;29153;42.696;23.218;2024-03-06T03:54:13;14.13;;;6.78;;
43552;SDS011;29153;42.696;23.218;2024-03-06T04:05:16;19.90;;;9.35;;
43552;SDS011;29153;42.696;23.218;2024-03-06T04:07:47;20.20;;;8.20;;
43552;SDS011;29153;42.696;23.218;2024-03-06T04:10:15;17.20;;;8.23;;
43552;SDS011;29153;42.696;23.218;2024-03-06T04:20:44;20.20;;;9.05;;
43552;SDS011;29153;42.696;23.218;2024-03-06T04:23:22;17.80;;;8.30;;
43552;SDS011;29153;42.696;23.218;2024-03-06T04:26:03;22.15;;;8.63;;
43552;SDS011;29153;42.696;23.218;2024-03-06T04:28:32;22.32;;;8.60;;
43552;SDS011;29153;42.696;23.218;2024-03-06T04:31:00;19.90;;;8.58;;
43552;SDS011;29153;42.696;23.218;2024-03-06T04:33:28;19.55;;;8.45;;
43552;SDS011;29153;42.696;23.218;2024-03-06T04:35:56;19.00;;;8.33;;
43552;SDS011;29153;42.696;23.218;2024-03-06T04:38:24;19.05;;;8.48;;
43552;SDS011;29153;42.696;23.218;2024-03-06T04:40:52;17.05;;;7.47;;
43552;SDS011;29153;42.696;23.218;2024-03-06T04:43:20;19.40;;;9.38;;
43552;SDS011;29153;42.696;23.218;2024-03-06T04:45:48;15.05;;;7.15;;
43552;SDS011;29153;42.696;23.218;2024-03-06T04:48:16;19.75;;;8.30;;
43552;SDS011;29153;42.696;23.218;2024-03-06T05:08:56;15.85;;;6.90;;
43552;SDS011;29153;42.696;23.218;2024-03-06T05:16:31;16.20;;;7.72;;
43552;SDS011;29153;42.696;23.218;2024-03-06T05:18:58;17.17;;;7.28;;
43552;SDS011;29153;42.696;23.218;2024-03-06T05:21:26;18.75;;;7.80;;
43552;SDS011;29153;42.696;23.218;2024-03-06T05:23:54;18.23;;;7.75;;
43552;SDS011;29153;42.696;23.218;2024-03-06T05:26:21;19.62;;;8.13;;
43552;SDS011;29153;42.696;23.218;2024-03-06T05:28:49;16.60;;;8.15;;
43552;SDS011;29153;42.696;23.218;2024-03-06T05:31:18;16.82;;;6.85;;
43552;SDS011;29153;42.696;23.218;2024-03-06T05:33:48;17.27;;;7.50;;
43552;SDS011;29153;42.696;23.218;2024-03-06T05:36:17;16.37;;;6.70;;
43552;SDS011;29153;42.696;23.218;2024-03-06T05:38:47;15.38;;;7.33;;
43552;SDS011;29153;42.696;23.218;2024-03-06T05:41:17;20.32;;;7.37;;
43552;SDS011;29153;42.696;23.218;2024-03-06T05:43:45;14.98;;;7.05;;
43552;SDS011;29153;42.696;23.218;2024-03-06T05:46:13;18.27;;;8.05;;
43552;SDS011;29153;42.696;23.218;2024-03-06T05:48:41;15.85;;;6.65;;
43552;SDS011;29153;42.696;23.218;2024-03-06T05:51:09;17.55;;;6.87;;
43552;SDS011;29153;42.696;23.218;2024-03-06T05:56:12;15.18;;;7.53;;
43552;SDS011;29153;42.696;23.218;2024-03-06T06:01:15;16.90;;;7.65;;
43552;SDS011;29153;42.696;23.218;2024-03-06T06:06:43;14.73;;;7.05;;
43552;SDS011;29153;42.696;23.218;2024-03-06T06:14:23;35.33;;;14.25;;
43552;SDS011;29153;42.696;23.218;2024-03-06T06:33:43;57.08;;;23.27;;
43552;SDS011;29153;42.696;23.218;2024-03-06T06:36:11;62.20;;;26.97;;
43552;SDS011;29153;42.696;23.218;2024-03-06T06:38:39;65.30;;;24.60;;
43552;SDS011;29153;42.696;23.218;2024-03-06T06:41:07;59.50;;;25.27;;
43552;SDS011;29153;42.696;23.218;2024-03-06T06:43:34;58.30;;;26.70;;
43552;SDS011;29153;42.696;23.218;2024-03-06T06:46:02;54.70;;;25.17;;
43552;SDS011;29153;42.696;23.218;2024-03-06T06:48:31;45.58;;;22.82;;
43552;SDS011;29153;42.696;23.218;2024-03-06T06:50:59;41.75;;;20.35;;
43552;SDS011;29153;42.696;23.218;2024-03-06T06:53:29;49.18;;;21.93;;
43552;SDS011;29153;42.696;23.218;2024-03-06T06:55:57;42.83;;;21.60;;
43552;SDS011;29153;42.696;23.218;2024-03-06T06:58:25;51.60;;;22.95;;
43552;SDS011;29153;42.696;23.218;2024-03-06T07:00:55;42.48;;;21.82;;
43552;SDS011;29153;42.696;23.218;2024-03-06T07:03:23;41.42;;;20.62;;
43552;SDS011;29153;42.696;23.218;2024-03-06T07:05:52;32.90;;;16.70;;
43552;SDS011;29153;42.696;23.218;2024-03-06T07:08:19;31.10;;;15.03;;
43552;SDS011;29153;42.696;23.218;2024-03-06T07:10:48;30.70;;;15.03;;
43552;SDS011;29153;42.696;23.218;2024-03-06T07:13:16;31.30;;;14.50;;
43552;SDS011;29153;42.696;23.218;2024-03-06T07:15:44;30.57;;;15.75;;
43552;SDS011;29153;42.696;23.218;2024-03-06T07:18:11;30.75;;;15.60;;
43552;SDS011;29153;42.696;23.218;2024-03-06T07:20:39;33.25;;;15.85;;
43552;SDS011;29153;42.696;23.218;2024-03-06T07:23:11;30.20;;;14.60;;
43552;SDS011;29153;42.696;23.218;2024-03-06T07:25:39;29.45;;;15.20;;
43552;SDS011;29153;42.696;23.218;2024-03-06T07:28:12;34.10;;;17.10;;
43552;SDS011;29153;42.696;23.218;2024-03-06T07:30:40;28.42;;;14.58;;
43552;SDS011;29153;42.696;23.218;2024-03-06T07:33:08;27.30;;;13.85;;
43552;SDS011;29153;42.696;23.218;2024-03-06T07:35:36;32.67;;;14.47;;
43552;SDS011;29153;42.696;23.218;2024-03-06T07:38:03;32.10;;;14.68;;
43552;SDS011;29153;42.696;23.218;2024-03-06T07:40:31;31.70;;;15.13;;
43552;SDS011;29153;42.696;23.218;2024-03-06T07:42:59;29.75;;;15.20;;
43552;SDS011;29153;42.696;23.218;2024-03-06T07:45:26;29.52;;;15.13;;
43552;SDS011;29153;42.696;23.218;2024-03-06T07:47:55;33.23;;;14.93;;
43552;SDS011;29153;42.696;23.218;2024-03-06T07:50:22;30.82;;;14.43;;
43552;SDS011;29153;42.696;23.218;2024-03-06T07:52:50;26.05;;;13.32;;
43552;SDS011;29153;42.696;23.218;2024-03-06T07:55:17;27.52;;;13.70;;
43552;SDS011;29153;42.696;23.218;2024-03-06T07:57:47;27.48;;;13.88;;
43552;SDS011;29153;42.696;23.218;2024-03-06T08:00:14;28.02;;;13.78;;
43552;SDS011;29153;42.696;23.218;2024-03-06T08:02:44;26.93;;;13.90;;
43552;SDS011;29153;42.696;23.218;2024-03-06T08:05:17;26.07;;;13.03;;
43552;SDS011;29153;42.696;23.218;2024-03-06T08:07:46;24.40;;;12.93;;
43552;SDS011;29153;42.696;23.218;2024-03-06T08:10:14;27.05;;;13.35;;
43552;SDS011;29153;42.696;23.218;2024-03-06T08:12:43;29.25;;;15.18;;
43552;SDS011;29153;42.696;23.218;2024-03-06T08:15:13;29.10;;;12.18;;
43552;SDS011;29153;42.696;23.218;2024-03-06T08:17:42;29.92;;;15.32;;
43552;SDS011;29153;42.696;23.218;2024-03-06T08:20:10;29.30;;;14.63;;
43552;SDS011;29153;42.696;23.218;2024-03-06T08:22:39;30.25;;;15.58;;
43552;SDS011;29153;42.696;23.218;2024-03-06T08:25:08;30.55;;;14.98;;
43552;SDS011;29153;42.696;23.218;2024-03-06T08:27:38;27.85;;;15.18;;
43552;SDS011;29153;42.696;23.218;2024-03-06T08:30:07;32.42;;;15.78;;
43552;SDS011;29153;42.696;23.218;2024-03-06T08:32:35;35.68;;;15.45;;
43552;SDS011;29153;42.696;23.218;2024-03-06T08:35:04;29.07;;;14.33;;
43552;SDS011;29153;42.696;23.218;2024-03-06T08:37:32;30.68;;;16.20;;
43552;SDS011;29153;42.696;23.218;2024-03-06T08:40:00;26.68;;;14.68;;
43552;SDS011;29153;42.696;23.218;2024-03-06T08:42:28;28.87;;;14.95;;
43552;SDS011;29153;42.696;23.218;2024-03-06T08:44:56;28.70;;;14.85;;
43552;SDS011;29153;42.696;23.218;2024-03-06T08:47:23;34.73;;;14.95;;
43552;SDS011;29153;42.696;23.218;2024-03-06T08:49:51;39.88;;;18.60;;
43552;SDS011;29153;42.696;23.218;2024-03-06T08:52:19;23.07;;;13.28;;
43552;SDS011;29153;42.696;23.218;2024-03-06T08:54:47;23.07;;;12.20;;
43552;SDS011;29153;42.696;23.218;2024-03-06T08:57:14;24.63;;;11.75;;
43552;SDS011;29153;42.696;23.218;2024-03-06T08:59:42;24.43;;;11.35;;
43552;SDS011;29153;42.696;23.218;2024-03-06T09:02:13;20.70;;;10.45;;
43552;SDS011;29153;42.696;23.218;2024-03-06T09:04:43;25.90;;;11.65;;
43552;SDS011;29153;42.696;23.218;2024-03-06T09:07:11;25.08;;;11.63;;
43552;SDS011;29153;42.696;23.218;2024-03-06T09:09:40;22.95;;;10.75;;
43552;SDS011;29153;42.696;23.218;2024-03-06T09:12:08;17.77;;;10.10;;
43552;SDS011;29153;42.696;23.218;2024-03-06T09:14:40;24.10;;;10.50;;
43552;SDS011;29153;42.696;23.218;2024-03-06T09:17:07;30.82;;;14.45;;
43552;SDS011;29153;42.696;23.218;2024-03-06T09:19:35;15.53;;;8.55;;
43552;SDS011;29153;42.696;23.218;2024-03-06T09:22:03;15.48;;;8.35;;
43552;SDS011;29153;42.696;23.218;2024-03-06T09:24:32;23.57;;;10.65;;
43552;SDS011;29153;42.696;23.218;2024-03-06T09:27:01;19.90;;;10.58;;
43552;SDS011;29153;42.696;23.218;2024-03-06T09:29:29;21.33;;;11.80;;
43552;SDS011;29153;42.696;23.218;2024-03-06T09:31:56;23.05;;;12.20;;
43552;SDS011;29153;42.696;23.218;2024-03-06T09:34:24;21.52;;;11.28;;
43552;SDS011;29153;42.696;23.218;2024-03-06T09:36:52;19.50;;;11.57;;
43552;SDS011;29153;42.696;23.218;2024-03-06T09:39:20;16.55;;;8.60;;
43552;SDS011;29153;42.696;23.218;2024-03-06T09:41:52;16.35;;;8.05;;
43552;SDS011;29153;42.696;23.218;2024-03-06T09:44:21;18.10;;;9.13;;
43552;SDS011;29153;42.696;23.218;2024-03-06T09:46:51;14.07;;;7.53;;
43552;SDS011;29153;42.696;23.218;2024-03-06T09:49:19;16.50;;;8.00;;
43552;SDS011;29153;42.696;23.218;2024-03-06T09:51:49;18.62;;;8.00;;
43552;SDS011;29153;42.696;23.218;2024-03-06T09:54:18;16.62;;;8.48;;
43552;SDS011;29153;42.696;23.218;2024-03-06T09:59:14;14.78;;;7.45;;
43552;SDS011;29153;42.696;23.218;2024-03-06T10:01:54;12.43;;;6.65;;
43552;SDS011;29153;42.696;23.218;2024-03-06T10:04:26;12.65;;;6.90;;
43552;SDS011;29153;42.696;23.218;2024-03-06T10:06:55;13.60;;;6.28;;
43552;SDS011;29153;42.696;23.218;2024-03-06T10:09:24;14.60;;;7.22;;
43552;SDS011;29153;42.696;23.218;2024-03-06T10:11:53;14.60;;;6.75;;
43552;SDS011;29153;42.696;23.218;2024-03-06T10:14:22;11.33;;;5.50;;
43552;SDS011;29153;42.696;23.218;2024-03-06T10:16:53;11.12;;;6.15;;
43552;SDS011;29153;42.696;23.218;2024-03-06T10:21:54;10.20;;;5.28;;
43552;SDS011;29153;42.696;23.218;2024-03-06T10:26:54;10.93;;;5.92;;
43552;SDS011;29153;42.696;23.218;2024-03-06T10:29:24;14.43;;;5.03;;
43552;SDS011;29153;42.696;23.218;2024-03-06T10:31:53;10.28;;;5.17;;
43552;SDS011;29153;42.696;23.218;2024-03-06T10:34:24;8.83;;;4.70;;
43552;SDS011;29153;42.696;23.218;2024-03-06T10:36:56;11.90;;;6.45;;
43552;SDS011;29153;42.696;23.218;2024-03-06T10:39:25;10.38;;;4.65;;
43552;SDS011;29153;42.696;23.218;2024-03-06T10:41:56;14.30;;;5.60;;
43552;SDS011;29153;42.696;23.218;2024-03-06T10:44:24;14.58;;;6.45;;
43552;SDS011;29153;42.696;23.218;2024-03-06T10:49:26;9.13;;;5.37;;
43552;SDS011;29153;42.696;23.218;2024-03-06T10:52:04;75.80;;;22.93;;
43552;SDS011;29153;42.696;23.218;2024-03-06T10:54:30;12.82;;;6.55;;
43552;SDS011;29153;42.696;23.218;2024-03-06T10:57:03;16.87;;;7.90;;
43552;SDS011;29153;42.696;23.218;2024-03-06T10:59:30;37.63;;;15.83;;
43552;SDS011;29153;42.696;23.218;2024-03-06T11:01:59;11.93;;;6.00;;
43552;SDS011;29153;42.696;23.218;2024-03-06T11:04:29;12.70;;;5.72;;
43552;SDS011;29153;42.696;23.218;2024-03-06T11:07:01;12.30;;;5.60;;
43552;SDS011;29153;42.696;23.218;2024-03-06T11:09:36;10.72;;;5.53;;
43552;SDS011;29153;42.696;23.218;2024-03-06T11:14:37;9.45;;;4.97;;
43552;SDS011;29153;42.696;23.218;2024-03-06T11:17:06;8.88;;;4.90;;
43552;SDS011;29153;42.696;23.218;2024-03-06T11:28:17;12.63;;;6.35;;
43552;SDS011;29153;42.696;23.218;2024-03-06T11:30:46;34.13;;;15.30;;
43552;SDS011;29153;42.696;23.218;2024-03-06T11:33:14;8.45;;;4.62;;
43552;SDS011;29153;42.696;23.218;2024-03-06T11:35:43;9.85;;;4.70;;
43552;SDS011;29153;42.696;23.218;2024-03-06T11:38:16;8.23;;;4.80;;
43552;SDS011;29153;42.696;23.218;2024-03-06T11:40:48;8.85;;;4.75;;
43552;SDS011;29153;42.696;23.218;2024-03-06T11:43:28;8.70;;;5.03;;
43552;SDS011;29153;42.696;23.218;2024-03-06T11:45:53;7.08;;;4.12;;
43552;SDS011;29153;42.696;23.218;2024-03-06T11:48:22;7.95;;;4.37;;
43552;SDS011;29153;42.696;23.218;2024-03-06T11:50:50;8.78;;;5.15;;
43552;SDS011;29153;42.696;23.218;2024-03-06T11:53:18;8.40;;;4.53;;
43552;SDS011;29153;42.696;23.218;2024-03-06T11:55:46;8.25;;;4.72;;
43552;SDS011;29153;42.696;23.218;2024-03-06T11:58:14;8.88;;;4.78;;
43552;SDS011;29153;42.696;23.218;2024-03-06T12:00:42;5.37;;;3.77;;
43552;SDS011;29153;42.696;23.218;2024-03-06T12:03:11;11.22;;;4.53;;
43552;SDS011;29153;42.696;23.218;2024-03-06T12:05:38;10.50;;;4.50;;
43552;SDS011;29153;42.696;23.218;2024-03-06T12:08:06;8.85;;;4.12;;
43552;SDS011;29153;42.696;23.218;2024-03-06T12:10:36;10.45;;;4.58;;
43552;SDS011;29153;42.696;23.218;2024-03-06T12:13:03;11.50;;;4.53;;
43552;SDS011;29153;42.696;23.218;2024-03-06T12:15:31;7.72;;;4.53;;
43552;SDS011;29153;42.696;23.218;2024-03-06T12:18:01;7.60;;;3.85;;
43552;SDS011;29153;42.696;23.218;2024-03-06T12:20:28;7.25;;;4.25;;
43552;SDS011;29153;42.696;23.218;2024-03-06T12:22:56;7.45;;;4.00;;
43552;SDS011;29153;42.696;23.218;2024-03-06T12:25:25;7.47;;;3.40;;
43552;SDS011;29153;42.696;23.218;2024-03-06T12:27:53;7.60;;;3.75;;
43552;SDS011;29153;42.696;23.218;2024-03-06T12:35:25;7.62;;;3.75;;
43552;SDS011;29153;42.696;23.218;2024-03-06T12:37:53;8.95;;;4.05;;
43552;SDS011;29153;42.696;23.218;2024-03-06T12:40:21;7.08;;;3.72;;
43552;SDS011;29153;42.696;23.218;2024-03-06T12:42:49;8.73;;;4.28;;
43552;SDS011;29153;42.696;23.218;2024-03-06T12:45:19;8.58;;;3.90;;
43552;SDS011;29153;42.696;23.218;2024-03-06T12:47:47;19.12;;;11.18;;
43552;SDS011;29153;42.696;23.218;2024-03-06T12:50:15;18.98;;;10.28;;
43552;SDS011;29153;42.696;23.218;2024-03-06T12:52:42;8.45;;;4.83;;
43552;SDS011;29153;42.696;23.218;2024-03-06T12:55:11;14.38;;;6.95;;
43552;SDS011;29153;42.696;23.218;2024-03-06T12:57:40;16.85;;;8.95;;
43552;SDS011;29153;42.696;23.218;2024-03-06T13:00:09;17.55;;;11.80;;
43552;SDS011;29153;42.696;23.218;2024-03-06T13:02:38;14.28;;;8.58;;
43552;SDS011;29153;42.696;23.218;2024-03-06T13:05:06;12.50;;;7.58;;
43552;SDS011;29153;42.696;23.218;2024-03-06T13:07:34;13.10;;;7.10;;
43552;SDS011;29153;42.696;23.218;2024-03-06T13:10:02;12.53;;;6.92;;
43552;SDS011;29153;42.696;23.218;2024-03-06T13:14:57;12.80;;;6.62;;
43552;SDS011;29153;42.696;23.218;2024-03-06T13:17:24;11.15;;;6.53;;
43552;SDS011;29153;42.696;23.218;2024-03-06T13:19:54;9.30;;;5.42;;
43552;SDS011;29153;42.696;23.218;2024-03-06T13:22:22;8.73;;;5.10;;
43552;SDS011;29153;42.696;23.218;2024-03-06T13:24:49;9.58;;;5.03;;
43552;SDS011;29153;42.696;23.218;2024-03-06T13:27:17;7.33;;;4.70;;
43552;SDS011;29153;42.696;23.218;2024-03-06T13:29:45;11.80;;;6.22;;
43552;SDS011;29153;42.696;23.218;2024-03-06T13:32:12;9.35;;;6.17;;
43552;SDS011;29153;42.696;23.218;2024-03-06T13:34:40;10.55;;;4.45;;
43552;SDS011;29153;42.696;23.218;2024-03-06T13:37:07;8.58;;;5.25;;
43552;SDS011;29153;42.696;23.218;2024-03-06T13:39:35;7.70;;;4.35;;
43552;SDS011;29153;42.696;23.218;2024-03-06T13:42:04;8.35;;;4.78;;
43552;SDS011;29153;42.696;23.218;2024-03-06T13:44:39;6.55;;;3.85;;
43552;SDS011;29153;42.696;23.218;2024-03-06T13:47:03;15.00;;;7.12;;
43552;SDS011;29153;42.696;23.218;2024-03-06T13:49:34;49.93;;;14.10;;
43552;SDS011;29153;42.696;23.218;2024-03-06T13:52:04;50.43;;;12.82;;
43552;SDS011;29153;42.696;23.218;2024-03-06T13:54:43;19.75;;;6.67;;
43552;SDS011;29153;42.696;23.218;2024-03-06T13:57:10;24.43;;;7.62;;
43552;SDS011;29153;42.696;23.218;2024-03-06T13:59:38;19.07;;;9.68;;
43552;SDS011;29153;42.696;23.218;2024-03-06T14:02:06;42.20;;;22.50;;
43552;SDS011;29153;42.696;23.218;2024-03-06T14:07:01;57.73;;;31.20;;
43552;SDS011;29153;42.696;23.218;2024-03-06T14:09:29;14.03;;;7.92;;
43552;SDS011;29153;42.696;23.218;2024-03-06T14:11:56;16.60;;;9.38;;
43552;SDS011;29153;42.696;23.218;2024-03-06T14:14:24;16.32;;;8.50;;
43552;SDS011;29153;42.696;23.218;2024-03-06T14:16:52;11.45;;;5.90;;
43552;SDS011;29153;42.696;23.218;2024-03-06T14:19:19;11.08;;;4.72;;
43552;SDS011;29153;42.696;23.218;2024-03-06T14:21:47;10.08;;;4.62;;
43552;SDS011;29153;42.696;23.218;2024-03-06T14:24:15;13.48;;;4.67;;
43552;SDS011;29153;42.696;23.218;2024-03-06T14:26:42;11.20;;;4.90;;
43552;SDS011;29153;42.696;23.218;2024-03-06T14:29:10;10.53;;;4.95;;
43552;SDS011;29153;42.696;23.218;2024-03-06T14:31:38;11.03;;;4.97;;
43552;SDS011;29153;42.696;23.218;2024-03-06T14:34:05;13.68;;;5.97;;
43552;SDS011;29153;42.696;23.218;2024-03-06T14:36:33;10.68;;;5.78;;
43552;SDS011;29153;42.696;23.218;2024-03-06T14:39:01;8.83;;;5.17;;
43552;SDS011;29153;42.696;23.218;2024-03-06T14:41:28;10.45;;;5.97;;
43552;SDS011;29153;42.696;23.218;2024-03-06T14:43:56;13.28;;;6.58;;
43552;SDS011;29153;42.696;23.218;2024-03-06T14:46:23;11.30;;;6.17;;
43552;SDS011;29153;42.696;23.218;2024-03-06T14:48:52;13.93;;;6.65;;
43552;SDS011;29153;42.696;23.218;2024-03-06T14:51:20;10.95;;;6.12;;
43552;SDS011;29153;42.696;23.218;2024-03-06T14:53:50;12.53;;;6.22;;
43552;SDS011;29153;42.696;23.218;2024-03-06T14:56:18;12.55;;;6.12;;
43552;SDS011;29153;42.696;23.218;2024-03-06T14:58:47;12.23;;;6.33;;
43552;SDS011;29153;42.696;23.218;2024-03-06T15:01:15;11.75;;;7.42;;
43552;SDS011;29153;42.696;23.218;2024-03-06T15:03:43;14.80;;;7.72;;
43552;SDS011;29153;42.696;23.218;2024-03-06T15:06:11;32.85;;;13.18;;
43552;SDS011;29153;42.696;23.218;2024-03-06T15:08:39;121.45;;;39.03;;
43552;SDS011;29153;42.696;23.218;2024-03-06T15:11:07;75.47;;;28.00;;
43552;SDS011;29153;42.696;23.218;2024-03-06T15:13:34;28.87;;;14.20;;
43552;SDS011;29153;42.696;23.218;2024-03-06T15:16:02;18.40;;;9.50;;
43552;SDS011;29153;42.696;23.218;2024-03-06T15:18:34;14.47;;;7.47;;
43552;SDS011;29153;42.696;23.218;2024-03-06T15:21:03;12.00;;;7.03;;
43552;SDS011;29153;42.696;23.218;2024-03-06T15:23:32;11.18;;;6.03;;
43552;SDS011;29153;42.696;23.218;2024-03-06T15:25:59;13.68;;;7.62;;
43552;SDS011;29153;42.696;23.218;2024-03-06T15:28:27;12.43;;;6.78;;
43552;SDS011;29153;42.696;23.218;2024-03-06T15:30:55;12.35;;;6.53;;
43552;SDS011;29153;42.696;23.218;2024-03-06T15:33:22;11.40;;;5.90;;
43552;SDS011;29153;42.696;23.218;2024-03-06T15:35:51;13.90;;;7.15;;
43552;SDS011;29153;42.696;23.218;2024-03-06T15:38:18;14.47;;;9.75;;
43552;SDS011;29153;42.696;23.218;2024-03-06T15:40:46;9.90;;;5.70;;
43552;SDS011;29153;42.696;23.218;2024-03-06T15:43:15;13.25;;;5.87;;
43552;SDS011;29153;42.696;23.218;2024-03-06T15:45:43;10.45;;;5.78;;
43552;SDS011;29153;42.696;23.218;2024-03-06T15:48:12;20.40;;;10.80;;
43552;SDS011;29153;42.696;23.218;2024-03-06T15:50:40;12.60;;;7.62;;
43552;SDS011;29153;42.696;23.218;2024-03-06T15:55:35;10.98;;;6.40;;
43552;SDS011;29153;42.696;23.218;2024-03-06T15:58:03;9.20;;;4.90;;
43552;SDS011;29153;42.696;23.218;2024-03-06T16:00:33;11.03;;;6.22;;
43552;SDS011;29153;42.696;23.218;2024-03-06T16:03:00;9.33;;;5.67;;
43552;SDS011;29153;42.696;23.218;2024-03-06T16:05:28;11.45;;;6.10;;
43552;SDS011;29153;42.696;23.218;2024-03-06T16:07:59;8.78;;;5.90;;
43552;SDS011;29153;42.696;23.218;2024-03-06T16:10:30;12.58;;;6.65;;
43552;SDS011;29153;42.696;23.218;2024-03-06T16:12:59;18.32;;;10.40;;
43552;SDS011;29153;42.696;23.218;2024-03-06T16:15:48;16.40;;;8.63;;
43552;SDS011;29153;42.696;23.218;2024-03-06T16:18:20;14.47;;;9.50;;
43552;SDS011;29153;42.696;23.218;2024-03-06T16:20:48;29.63;;;15.00;;
43552;SDS011;29153;42.696;23.218;2024-03-06T16:23:19;18.10;;;10.25;;
43552;SDS011;29153;42.696;23.218;2024-03-06T16:25:52;17.82;;;12.35;;
43552;SDS011;29153;42.696;23.218;2024-03-06T16:28:19;16.75;;;10.53;;
43552;SDS011;29153;42.696;23.218;2024-03-06T16:30:48;21.33;;;11.88;;
43552;SDS011;29153;42.696;23.218;2024-03-06T16:33:15;15.48;;;10.15;;
43552;SDS011;29153;42.696;23.218;2024-03-06T16:35:44;15.40;;;9.45;;
43552;SDS011;29153;42.696;23.218;2024-03-06T16:38:11;11.80;;;7.08;;
43552;SDS011;29153;42.696;23.218;2024-03-06T16:40:39;9.33;;;5.78;;